Time;durP1;ratioP1;P1;durP2;ratioP2;P2;SDS_P1;SDS_P2;PMS_P1;PMS_P2;Temp;Humidity;BMP_temperature;BMP_pressure;BME280_temperature;BME280_humidity;BME280_pressure;Samples;Min_cycle;Max_cycle;Signal;HPM_P1;HPM_P2
2021/07/11 00:01:21;;;;;;;;;17.00;9.50;;;;;18.49;75.95;101456.31;4995637;28;45573;-68
2021/07/11 00:03:46;;;;;;;;;11.75;11.00;;;;;18.51;75.72;101455.22;4994872;28;54819;-68
2021/07/11 00:06:12;;;;;;;;;11.00;10.00;;;;;18.57;76.15;101459.31;4996469;28;47574;-69
2021/07/11 00:08:37;;;;;;;;;16.25;14.00;;;;;18.59;75.75;101464.56;4995665;28;46331;-68
2021/07/11 00:11:02;;;;;;;;;17.00;15.00;;;;;18.63;75.81;101463.38;4995679;28;45647;-68
2021/07/11 00:13:28;;;;;;;;;14.50;13.50;;;;;18.65;75.47;101451.69;4995675;28;45888;-69
2021/07/11 00:15:54;;;;;;;;;18.50;16.50;;;;;18.70;75.58;101457.59;4995514;28;45561;-68
2021/07/11 00:18:19;;;;;;;;;19.75;14.25;;;;;18.71;75.28;101453.13;4996262;28;45413;-68
2021/07/11 00:20:44;;;;;;;;;14.75;12.00;;;;;18.72;75.39;101449.50;4995455;28;45452;-69
2021/07/11 00:23:10;;;;;;;;;15.50;13.50;;;;;18.70;75.49;101441.63;4995344;28;45419;-68
2021/07/11 00:25:35;;;;;;;;;16.50;12.50;;;;;18.72;75.30;101439.69;4995758;28;45372;-69
2021/07/11 00:28:01;;;;;;;;;14.75;12.75;;;;;18.72;75.41;101441.50;4994809;28;45584;-68
2021/07/11 00:30:26;;;;;;;;;10.50;10.25;;;;;18.71;75.70;101439.81;4991338;28;46677;-68
2021/07/11 00:32:53;;;;;;;;;6.00;6.00;;;;;18.73;75.81;101435.22;4995656;28;45434;-68
2021/07/11 00:35:19;;;;;;;;;12.00;7.25;;;;;18.70;75.41;101432.78;4995340;28;45234;-68
2021/07/11 00:37:44;;;;;;;;;5.75;5.75;;;;;18.73;75.78;101438.75;4995429;28;45285;-68
2021/07/11 00:40:12;;;;;;;;;6.50;6.00;;;;;18.71;75.31;101437.16;4995363;28;46391;-69
2021/07/11 00:42:38;;;;;;;;;6.00;4.25;;;;;18.69;75.86;101431.94;4994582;28;45392;-71
2021/07/11 00:45:04;;;;;;;;;5.00;3.75;;;;;18.67;76.12;101431.13;4995170;28;45301;-68
2021/07/11 00:47:30;;;;;;;;;3.00;3.00;;;;;18.71;75.52;101432.66;4995577;28;45350;-68
2021/07/11 00:49:55;;;;;;;;;3.75;3.50;;;;;18.69;75.57;101431.94;4994790;28;46299;-68
2021/07/11 00:52:21;;;;;;;;;3.75;3.75;;;;;18.68;75.50;101434.66;4995189;28;45590;-69
2021/07/11 00:54:46;;;;;;;;;3.25;3.00;;;;;18.64;75.95;101428.69;4995296;28;45431;-70
2021/07/11 00:57:11;;;;;;;;;3.50;2.50;;;;;18.57;75.83;101422.03;4995122;28;45431;-69
2021/07/11 00:59:38;;;;;;;;;2.00;2.00;;;;;18.54;75.27;101416.94;4994201;28;54187;-68
2021/07/11 01:02:16;;;;;;;;;1.25;1.25;;;;;18.50;75.36;101424.25;4994971;28;45543;-68
2021/07/11 01:04:51;;;;;;;;;2.00;2.00;;;;;18.44;75.64;101419.34;4995224;28;45310;-70
2021/07/11 01:07:26;;;;;;;;;2.00;2.00;;;;;18.41;75.85;101426.66;4995302;28;45399;-68
2021/07/11 01:09:55;;;;;;;;;2.00;2.00;;;;;18.38;75.48;101411.75;4995289;28;46644;-68
2021/07/11 01:12:25;;;;;;;;;4.00;2.75;;;;;18.32;75.48;101414.78;4995494;28;45771;-69
2021/07/11 01:14:52;;;;;;;;;3.00;3.00;;;;;18.26;75.53;101410.72;4994196;28;45455;-69
2021/07/11 01:17:22;;;;;;;;;2.00;1.00;;;;;18.22;76.27;101408.38;4994853;28;45453;-68
2021/07/11 01:20:03;;;;;;;;;2.00;2.00;;;;;18.21;76.29;101410.16;4994540;28;46896;-68
2021/07/11 01:22:35;;;;;;;;;1.75;1.75;;;;;18.20;75.81;101402.28;4994589;28;45527;-68
2021/07/11 01:25:12;;;;;;;;;1.00;1.00;;;;;18.18;75.86;101409.53;4994955;28;45554;-68
2021/07/11 01:27:38;;;;;;;;;2.25;2.25;;;;;18.14;76.52;101403.53;4994076;28;45499;-68
2021/07/11 01:30:07;;;;;;;;;2.50;2.50;;;;;18.02;76.77;101387.53;4994366;28;46518;-68
2021/07/11 01:32:34;;;;;;;;;2.00;2.00;;;;;18.05;76.88;101395.28;4994289;28;45707;-68
2021/07/11 01:35:02;;;;;;;;;2.50;2.00;;;;;18.01;76.85;101402.63;4994745;28;45456;-68
2021/07/11 01:37:29;;;;;;;;;1.50;1.50;;;;;17.96;77.19;101392.28;4994551;28;45603;-69
2021/07/11 01:39:55;;;;;;;;;4.00;2.00;;;;;17.92;76.96;101395.22;4994514;28;46209;-68
2021/07/11 01:42:21;;;;;;;;;3.50;2.00;;;;;17.83;77.04;101385.16;4995260;28;45420;-69
2021/07/11 01:44:47;;;;;;;;;2.50;2.50;;;;;17.83;76.74;101390.47;4994343;28;45682;-69
2021/07/11 01:47:13;;;;;;;;;2.00;2.00;;;;;17.80;76.88;101383.56;4994360;28;45582;-68
2021/07/11 01:49:40;;;;;;;;;2.00;2.00;;;;;17.79;76.75;101386.28;4994717;28;45649;-69
2021/07/11 01:52:06;;;;;;;;;4.75;4.00;;;;;17.74;76.88;101379.44;4994443;28;45725;-69
2021/07/11 01:54:32;;;;;;;;;2.00;1.00;;;;;17.69;76.99;101375.34;4998537;28;45400;-69
2021/07/11 01:56:57;;;;;;;;;2.00;2.00;;;;;17.69;77.66;101381.50;4997042;28;45448;-68
2021/07/11 01:59:23;;;;;;;;;2.25;2.00;;;;;17.65;77.53;101379.16;4997637;28;46609;-68
2021/07/11 02:01:48;;;;;;;;;2.25;2.00;;;;;17.62;77.83;101371.38;4997440;28;45320;-69
2021/07/11 02:04:14;;;;;;;;;2.00;2.00;;;;;17.58;78.02;101377.81;4998133;28;45501;-69
2021/07/11 02:06:41;;;;;;;;;3.50;2.25;;;;;17.56;77.76;101379.72;4998060;28;45503;-69
2021/07/11 02:09:09;;;;;;;;;1.00;1.00;;;;;17.51;77.92;101385.34;4997952;28;47590;-69
2021/07/11 02:11:38;;;;;;;;;1.50;1.50;;;;;17.48;77.88;101381.03;4997139;28;45229;-68
2021/07/11 02:14:17;;;;;;;;;1.50;1.50;;;;;17.46;77.73;101368.81;4997896;28;45361;-68
2021/07/11 02:16:55;;;;;;;;;1.50;0.50;;;;;17.43;78.28;101372.50;4997476;28;45446;-72
2021/07/11 02:19:21;;;;;;;;;1.50;1.50;;;;;17.38;77.96;101369.31;4997639;28;47068;-69
2021/07/11 02:21:47;;;;;;;;;1.00;1.00;;;;;17.35;78.21;101369.47;4997523;28;45345;-69
2021/07/11 02:24:13;;;;;;;;;1.00;1.00;;;;;17.35;78.71;101364.16;4998129;28;45765;-71
2021/07/11 02:26:39;;;;;;;;;2.00;2.00;;;;;17.34;78.42;101359.81;4996738;28;45512;-68
2021/07/11 02:29:06;;;;;;;;;1.00;1.00;;;;;17.31;78.51;101364.44;4997363;28;45496;-68
2021/07/11 02:31:36;;;;;;;;;1.00;1.00;;;;;17.22;77.98;101349.91;4997304;28;45617;-69
2021/07/11 02:34:02;;;;;;;;;1.50;1.50;;;;;17.29;78.60;101367.19;4981791;28;45644;-68
2021/07/11 02:36:30;;;;;;;;;2.50;2.00;;;;;17.30;78.51;101373.34;4996488;28;45408;-70
2021/07/11 02:39:09;;;;;;;;;2.50;2.00;;;;;17.31;78.27;101375.06;4997066;28;51306;-69
2021/07/11 02:41:37;;;;;;;;;1.00;1.00;;;;;17.31;78.12;101367.09;4996626;28;45723;-69
2021/07/11 02:44:06;;;;;;;;;1.00;1.00;;;;;17.32;78.69;101372.31;4997176;28;45393;-68
2021/07/11 02:46:41;;;;;;;;;2.00;2.00;;;;;17.36;78.61;101380.94;4997178;28;45845;-69
2021/07/11 02:49:11;;;;;;;;;2.25;2.25;;;;;17.37;78.39;101382.66;4982567;28;46548;-68
2021/07/11 02:51:40;;;;;;;;;3.00;2.00;;;;;17.33;78.54;101376.69;4997345;28;45769;-68
2021/07/11 02:54:08;;;;;;;;;1.75;1.50;;;;;17.38;78.60;101394.97;4994510;28;45419;-68
2021/07/11 02:56:38;;;;;;;;;3.00;1.00;;;;;17.39;78.46;101389.59;4995942;28;45682;-68
2021/07/11 02:59:06;;;;;;;;;2.25;2.25;;;;;17.40;78.76;101393.09;4996547;28;45711;-68
2021/07/11 03:01:33;;;;;;;;;1.50;1.50;;;;;17.40;78.83;101393.09;4996618;28;45499;-68
2021/07/11 03:03:59;;;;;;;;;2.00;1.00;;;;;17.45;78.91;101386.56;4996920;28;45330;-68
2021/07/11 03:06:25;;;;;;;;;2.00;2.00;;;;;17.46;78.92;101390.06;4997342;28;45456;-68
2021/07/11 03:08:50;;;;;;;;;4.00;2.00;;;;;17.51;79.39;101390.66;4996623;28;46091;-69
2021/07/11 03:11:16;;;;;;;;;2.00;2.00;;;;;17.52;79.19;101383.53;4996636;28;45444;-68
2021/07/11 03:13:42;;;;;;;;;2.00;2.00;;;;;17.56;79.39;101385.03;4996504;28;45509;-69
2021/07/11 03:16:08;;;;;;;;;2.00;2.00;;;;;17.60;79.30;101390.09;4996777;28;45434;-70
2021/07/11 03:18:37;;;;;;;;;5.00;2.00;;;;;17.65;78.87;101384.50;4996623;28;45379;-68
2021/07/11 03:21:05;;;;;;;;;2.00;2.00;;;;;17.65;78.96;101389.81;4997148;28;45656;-68
2021/07/11 03:23:33;;;;;;;;;2.00;2.00;;;;;17.66;79.26;101388.84;4996469;28;45493;-69
2021/07/11 03:25:58;;;;;;;;;2.00;2.00;;;;;17.67;79.08;101385.22;4996081;28;46216;-68
2021/07/11 03:28:23;;;;;;;;;2.25;2.25;;;;;17.69;78.76;101391.28;4996212;28;46311;-69
2021/07/11 03:30:51;;;;;;;;;3.00;3.00;;;;;17.71;79.01;101400.91;4996458;28;45386;-69
2021/07/11 03:33:19;;;;;;;;;3.25;3.25;;;;;17.72;78.81;101396.44;4997130;28;45294;-68
2021/07/11 03:35:55;;;;;;;;;3.25;3.00;;;;;17.74;79.04;101399.88;4996389;28;45656;-69
2021/07/11 03:38:23;;;;;;;;;4.50;2.50;;;;;17.72;78.68;101396.44;4995773;28;46442;-68
2021/07/11 03:40:53;;;;;;;;;3.00;2.75;;;;;17.73;78.65;101396.34;4996267;28;45420;-69
2021/07/11 03:43:22;;;;;;;;;3.00;2.75;;;;;17.74;79.06;101402.53;4996705;28;45424;-68
2021/07/11 03:45:51;;;;;;;;;3.00;3.00;;;;;17.73;79.22;101411.47;4996382;28;45618;-68
2021/07/11 03:48:20;;;;;;;;;2.25;2.25;;;;;17.73;78.72;101411.47;4996576;28;46538;-68
2021/07/11 03:50:50;;;;;;;;;3.25;3.25;;;;;17.73;79.31;101416.78;4995913;28;45654;-68
2021/07/11 03:53:20;;;;;;;;;3.00;3.00;;;;;17.74;79.18;101418.47;4995813;28;45402;-68
2021/07/11 03:55:47;;;;;;;;;4.25;4.25;;;;;17.74;78.91;101424.66;4995039;28;47722;-68
2021/07/11 03:58:13;;;;;;;;;4.00;3.75;;;;;17.75;78.89;101428.19;4995651;28;46607;-68
2021/07/11 04:00:40;;;;;;;;;4.00;4.00;;;;;17.77;78.96;101428.94;4996115;28;45690;-68
2021/07/11 04:03:07;;;;;;;;;3.25;3.00;;;;;17.79;79.01;101432.34;4996072;28;45525;-68
2021/07/11 04:05:37;;;;;;;;;4.00;4.00;;;;;17.80;78.82;101426.09;4996253;28;45354;-69
2021/07/11 04:08:10;;;;;;;;;4.50;4.50;;;;;17.79;78.98;101427.03;4995304;28;46570;-68
2021/07/11 04:10:38;;;;;;;;;5.00;5.00;;;;;17.82;78.89;101424.19;4995807;28;45528;-70
2021/07/11 04:13:03;;;;;;;;;6.00;3.50;;;;;17.83;78.80;101422.38;4995729;28;45520;-68
2021/07/11 04:15:32;;;;;;;;;5.50;5.00;;;;;17.85;78.93;101426.63;4996444;28;45428;-68
2021/07/11 04:18:02;;;;;;;;;6.25;6.00;;;;;17.86;78.74;101424.88;4994865;28;45434;-69
2021/07/11 04:20:30;;;;;;;;;4.75;4.50;;;;;17.89;78.67;101427.31;4995362;28;45739;-68
2021/07/11 04:22:58;;;;;;;;;5.75;4.00;;;;;17.91;78.76;101428.09;4995343;28;45478;-69
2021/07/11 04:25:28;;;;;;;;;5.00;5.00;;;;;17.94;78.89;101428.72;4995382;28;45330;-68
2021/07/11 04:27:54;;;;;;;;;8.00;8.00;;;;;17.93;78.65;101421.72;4995258;28;45904;-68
2021/07/11 04:30:21;;;;;;;;;6.00;6.00;;;;;17.94;78.64;101418.09;4996008;28;45748;-68
2021/07/11 04:32:46;;;;;;;;;8.50;4.50;;;;;17.97;78.69;101423.22;4995393;28;45700;-71
2021/07/11 04:35:12;;;;;;;;;5.75;5.75;;;;;18.00;78.62;101424.81;4995309;28;45421;-68
2021/07/11 04:37:37;;;;;;;;;5.00;5.00;;;;;18.02;78.53;101419.44;4994885;28;45523;-68
2021/07/11 04:40:03;;;;;;;;;7.00;7.00;;;;;18.04;78.65;101421.03;4995725;28;45377;-68
2021/07/11 04:42:28;;;;;;;;;9.50;6.50;;;;;18.09;78.67;101423.41;4995883;28;45436;-68
2021/07/11 04:44:54;;;;;;;;;6.00;5.00;;;;;18.15;78.62;101431.00;4995274;28;45641;-68
2021/07/11 04:47:20;;;;;;;;;6.00;6.00;;;;;18.23;78.67;101431.38;4994916;28;46851;-68
2021/07/11 04:49:45;;;;;;;;;5.75;5.50;;;;;18.26;78.92;101434.66;4995136;28;45382;-68
2021/07/11 04:52:10;;;;;;;;;5.00;4.00;;;;;18.30;78.98;101437.13;4995223;28;45342;-70
2021/07/11 04:54:36;;;;;;;;;5.50;4.50;;;;;18.35;78.90;101441.22;4994735;28;45417;-68
2021/07/11 04:57:03;;;;;;;;;6.00;4.50;;;;;18.39;79.06;101440.06;4994936;28;46126;-68
2021/07/11 04:59:29;;;;;;;;;4.75;4.75;;;;;18.43;78.94;101433.59;4994773;28;45717;-68
2021/07/11 05:01:55;;;;;;;;;5.00;4.00;;;;;18.46;78.80;101438.72;4995076;28;45300;-68
2021/07/11 05:04:20;;;;;;;;;4.25;3.50;;;;;18.51;79.14;101441.06;4995435;28;45538;-68
2021/07/11 05:06:45;;;;;;;;;6.00;6.00;;;;;18.55;78.78;101439.06;4994299;28;45595;-68
2021/07/11 05:09:11;;;;;;;;;6.00;6.00;;;;;18.57;78.79;101435.34;4994755;28;45326;-68
2021/07/11 05:11:36;;;;;;;;;8.50;7.00;;;;;18.61;78.43;101444.00;4994930;28;45318;-69
2021/07/11 05:14:03;;;;;;;;;5.00;5.00;;;;;18.66;78.59;101442.75;4994987;28;45579;-69
2021/07/11 05:16:28;;;;;;;;;7.00;7.00;;;;;18.62;78.36;101425.25;4994963;28;47391;-68
2021/07/11 05:18:53;;;;;;;;;7.00;5.00;;;;;18.76;78.15;101435.03;4994859;28;45452;-69
2021/07/11 05:21:19;;;;;;;;;5.75;5.75;;;;;18.82;78.04;101439.09;4994540;28;48557;-68
2021/07/11 05:23:45;;;;;;;;;7.50;6.50;;;;;18.88;78.35;101438.69;4994795;28;45227;-68
2021/07/11 05:26:10;;;;;;;;;5.50;5.50;;;;;18.91;77.82;101434.03;4994139;28;47282;-71
2021/07/11 05:28:36;;;;;;;;;5.00;5.00;;;;;18.93;77.50;101440.09;4994315;28;47610;-68
2021/07/11 05:31:01;;;;;;;;;5.25;5.25;;;;;18.98;78.28;101445.09;4994900;28;45397;-68
2021/07/11 05:33:26;;;;;;;;;6.50;6.00;;;;;19.01;77.70;101439.59;4994542;28;45507;-69
2021/07/11 05:35:52;;;;;;;;;6.25;5.75;;;;;19.00;77.76;101443.19;4994551;28;46612;-68
2021/07/11 05:38:17;;;;;;;;;8.50;7.00;;;;;19.01;77.47;101455.56;4994619;28;45667;-68
2021/07/11 05:40:43;;;;;;;;;7.00;6.00;;;;;19.00;77.66;101449.41;4994686;28;45388;-68
2021/07/11 05:43:08;;;;;;;;;6.00;6.00;;;;;19.06;77.37;101457.94;4994205;28;45527;-68
2021/07/11 05:45:34;;;;;;;;;5.25;4.75;;;;;19.10;77.16;101459.41;4994416;28;45436;-68
2021/07/11 05:47:59;;;;;;;;;5.00;5.00;;;;;19.14;77.21;101456.44;4994265;28;45438;-68
2021/07/11 05:50:25;;;;;;;;;6.75;6.75;;;;;19.14;76.89;101448.44;4994229;28;45534;-68
2021/07/11 05:52:50;;;;;;;;;7.75;6.50;;;;;19.22;76.46;101454.13;4994729;28;45430;-68
2021/07/11 05:55:16;;;;;;;;;5.25;4.00;;;;;19.28;76.47;101455.50;4993740;28;46428;-68
2021/07/11 05:57:41;;;;;;;;;4.50;4.50;;;;;19.35;76.25;101451.47;4994460;28;45401;-68
2021/07/11 06:00:09;;;;;;;;;4.75;4.75;;;;;19.42;76.20;101454.56;4994778;28;45489;-69
2021/07/11 06:02:35;;;;;;;;;5.25;5.25;;;;;19.49;75.89;101454.03;4994108;28;45286;-68
2021/07/11 06:05:00;;;;;;;;;4.50;4.00;;;;;19.53;75.32;101444.88;4993970;28;46373;-68
2021/07/11 06:07:25;;;;;;;;;6.50;6.50;;;;;19.62;75.15;101443.41;4994435;28;45397;-68
2021/07/11 06:09:51;;;;;;;;;3.25;3.25;;;;;19.63;74.76;101433.59;4994323;28;45917;-68
2021/07/11 06:12:16;;;;;;;;;7.50;5.50;;;;;19.75;74.22;101449.59;4994526;28;45487;-69
2021/07/11 06:14:43;;;;;;;;;8.00;6.00;;;;;19.78;74.10;101445.84;4993899;28;46358;-69
2021/07/11 06:17:08;;;;;;;;;5.00;5.00;;;;;19.79;74.31;101451.09;4994037;28;47771;-68
2021/07/11 06:19:34;;;;;;;;;9.50;5.50;;;;;19.85;74.26;101456.97;4994067;28;45353;-70
2021/07/11 06:21:59;;;;;;;;;5.50;4.50;;;;;19.95;73.90;101450.00;4994052;28;45530;-68
2021/07/11 06:24:25;;;;;;;;;6.25;6.25;;;;;20.12;73.17;101454.13;4994090;28;46308;-68
2021/07/11 06:26:50;;;;;;;;;4.75;4.50;;;;;20.24;72.82;101447.91;4993585;28;45504;-68
2021/07/11 06:29:15;;;;;;;;;5.50;5.00;;;;;20.42;72.80;101457.28;4993945;28;45740;-69
2021/07/11 06:31:41;;;;;;;;;7.00;5.00;;;;;20.54;72.22;101460.88;4993857;28;45448;-68
2021/07/11 06:34:06;;;;;;;;;4.75;4.75;;;;;20.66;71.40;101445.75;4993516;28;46891;-69
2021/07/11 06:36:31;;;;;;;;;4.50;3.00;;;;;20.83;71.30;101451.56;4994413;28;45346;-68
2021/07/11 06:39:00;;;;;;;;;5.25;5.00;;;;;21.07;70.67;101456.03;4993978;28;45326;-68
2021/07/11 06:41:26;;;;;;;;;5.00;5.00;;;;;21.34;70.06;101448.59;5011873;28;45614;-68
2021/07/11 06:43:52;;;;;;;;;7.00;4.25;;;;;21.70;69.57;101459.25;4996862;28;46495;-68
2021/07/11 06:46:17;;;;;;;;;5.75;5.75;;;;;21.90;69.36;101450.50;4997089;28;45337;-68
2021/07/11 06:48:43;;;;;;;;;9.25;7.00;;;;;21.96;68.50;101460.72;4996990;28;45577;-71
2021/07/11 06:51:09;;;;;;;;;5.25;5.00;;;;;21.94;68.08;101451.13;4997468;28;45459;-68
2021/07/11 06:53:35;;;;;;;;;3.25;3.25;;;;;21.86;67.77;101452.56;4996357;28;47144;-68
2021/07/11 06:56:01;;;;;;;;;7.25;4.75;;;;;21.97;67.93;101453.53;4996214;28;45522;-68
2021/07/11 06:58:26;;;;;;;;;5.50;5.50;;;;;22.10;67.59;101456.94;4997315;28;45514;-68
2021/07/11 07:00:52;;;;;;;;;6.50;6.50;;;;;22.27;66.93;101456.47;4997022;28;45297;-71
2021/07/11 07:03:17;;;;;;;;;3.00;3.00;;;;;22.36;66.39;101444.16;4996208;28;45492;-69
2021/07/11 07:05:42;;;;;;;;;5.75;4.50;;;;;22.67;66.11;101456.75;4996752;28;45818;-68
2021/07/11 07:08:08;;;;;;;;;3.75;3.75;;;;;23.06;65.63;101459.78;4997232;28;45361;-68
2021/07/11 07:10:33;;;;;;;;;4.50;3.50;;;;;23.10;62.52;101453.19;4996611;28;45570;-68
2021/07/11 07:12:59;;;;;;;;;3.00;3.00;;;;;22.80;63.88;101453.88;4996635;28;46886;-69
2021/07/11 07:15:24;;;;;;;;;4.50;3.00;;;;;22.65;64.70;101456.00;4997174;28;45358;-69
2021/07/11 07:17:49;;;;;;;;;2.75;2.50;;;;;22.58;64.91;101460.16;4996664;28;46117;-69
2021/07/11 07:20:15;;;;;;;;;6.00;4.50;;;;;22.50;64.66;101457.28;4996614;28;45525;-69
2021/07/11 07:22:41;;;;;;;;;5.00;4.00;;;;;22.32;64.96;101450.75;4996423;28;45487;-68
2021/07/11 07:25:09;;;;;;;;;6.25;5.00;;;;;22.27;64.59;101452.94;4996362;28;45411;-68
2021/07/11 07:27:34;;;;;;;;;3.75;3.75;;;;;22.24;65.38;101458.53;4997280;28;45309;-69
2021/07/11 07:30:00;;;;;;;;;3.50;3.50;;;;;22.31;64.66;101462.44;4996122;28;45512;-68
2021/07/11 07:32:25;;;;;;;;;3.75;3.75;;;;;22.19;64.72;101460.75;4995297;28;46200;-70
2021/07/11 07:34:50;;;;;;;;;3.00;3.00;;;;;22.14;65.11;101461.13;4995878;28;45412;-69
2021/07/11 07:37:16;;;;;;;;;3.75;3.25;;;;;22.21;64.92;101456.97;4996507;28;45415;-69
2021/07/11 07:39:41;;;;;;;;;3.00;3.00;;;;;22.23;64.47;101471.06;4996453;28;45540;-68
2021/07/11 07:42:08;;;;;;;;;4.00;4.00;;;;;22.00;63.87;101472.88;4996058;28;62431;-68
2021/07/11 07:44:33;;;;;;;;;4.25;3.50;;;;;21.74;64.99;101477.63;4996328;28;45676;-69
2021/07/11 07:46:59;;;;;;;;;3.50;3.50;;;;;21.62;64.90;101474.06;5011093;28;45458;-68
2021/07/11 07:49:24;;;;;;;;;2.50;2.50;;;;;21.55;65.46;101474.66;4996223;28;45483;-68
2021/07/11 07:51:50;;;;;;;;;4.00;4.00;;;;;21.44;65.68;101472.81;4995562;28;46497;-68
2021/07/11 07:54:15;;;;;;;;;6.25;4.00;;;;;21.36;65.03;101478.75;4996569;28;45396;-69
2021/07/11 07:56:40;;;;;;;;;3.00;3.00;;;;;21.27;66.02;101474.06;4996321;28;45463;-69
2021/07/11 07:59:06;;;;;;;;;4.00;4.00;;;;;21.30;65.87;101476.56;4996073;28;45222;-68
2021/07/11 08:01:31;;;;;;;;;5.00;5.00;;;;;21.36;65.90;101470.75;4995012;28;49956;-71
2021/07/11 08:03:57;;;;;;;;;4.00;4.00;;;;;21.44;65.95;101467.47;4995775;28;45464;-68
2021/07/11 08:06:22;;;;;;;;;5.00;5.00;;;;;21.57;65.85;101465.56;4996332;28;45491;-68
2021/07/11 08:08:47;;;;;;;;;5.00;5.00;;;;;21.71;65.85;101477.00;4995248;28;45515;-68
2021/07/11 08:11:13;;;;;;;;;5.25;5.25;;;;;21.95;64.95;101469.72;4995116;28;55474;-68
2021/07/11 08:13:38;;;;;;;;;3.50;3.50;;;;;22.14;64.99;101467.31;4995402;28;45561;-68
2021/07/11 08:16:05;;;;;;;;;4.00;3.75;;;;;22.50;64.56;101467.13;4995423;28;45377;-68
2021/07/11 08:18:31;;;;;;;;;4.75;4.75;;;;;22.76;64.00;101462.31;4995821;28;45506;-68
2021/07/11 08:20:57;;;;;;;;;5.75;4.75;;;;;22.97;62.92;101465.94;4994949;28;51570;-69
2021/07/11 08:23:22;;;;;;;;;6.50;5.00;;;;;23.12;62.87;101469.13;4993007;28;45529;-68
2021/07/11 08:25:48;;;;;;;;;5.00;5.00;;;;;23.33;61.88;101471.81;4993051;28;45592;-68
2021/07/11 08:28:14;;;;;;;;;7.25;5.25;;;;;23.44;61.86;101464.59;4992829;28;45505;-68
2021/07/11 08:30:40;;;;;;;;;7.50;7.50;;;;;23.78;60.52;101472.41;4977870;28;47257;-69
2021/07/11 08:33:05;;;;;;;;;8.00;6.75;;;;;24.33;60.86;101464.88;4994722;28;45563;-69
2021/07/11 08:35:30;;;;;;;;;9.75;8.50;;;;;25.16;59.86;101457.34;4992706;28;45430;-68
2021/07/11 08:37:55;;;;;;;;;9.50;9.50;;;;;26.74;59.93;101464.56;4992761;28;45576;-68
2021/07/11 08:40:21;;;;;;;;;11.00;9.25;;;;;27.93;55.85;101441.53;4991865;28;45559;-68
2021/07/11 08:42:50;;;;;;;;;13.00;11.25;;;;;28.09;53.74;101443.44;4994876;28;45447;-68
2021/07/11 08:45:16;;;;;;;;;8.00;8.00;;;;;29.24;54.51;101444.53;4993896;28;45448;-67
2021/07/11 08:47:41;;;;;;;;;8.75;8.75;;;;;31.04;51.64;101450.88;4994984;28;45429;-68
2021/07/11 08:50:09;;;;;;;;;7.50;7.50;;;;;33.90;49.25;101444.13;4995149;28;45374;-68
2021/07/11 08:52:35;;;;;;;;;5.75;5.25;;;;;35.03;44.02;101446.19;4993794;28;45496;-68
2021/07/11 08:55:09;;;;;;;;;8.25;7.00;;;;;35.21;43.31;101450.16;4987056;28;45342;-68
2021/07/11 08:57:35;;;;;;;;;7.25;7.25;;;;;37.59;41.72;101456.34;4995259;28;45439;-70
2021/07/11 09:00:00;;;;;;;;;7.25;6.00;;;;;37.89;38.60;101456.44;4995144;28;51287;-69
2021/07/11 09:02:25;;;;;;;;;6.25;6.00;;;;;36.54;38.70;101456.09;4994342;28;45538;-68
2021/07/11 09:04:51;;;;;;;;;6.50;6.50;;;;;35.25;39.56;101460.47;4995099;28;45352;-72
2021/07/11 09:07:17;;;;;;;;;11.25;11.25;;;;;36.78;39.36;101460.78;4995031;28;45495;-69
2021/07/11 09:09:42;;;;;;;;;6.25;5.50;;;;;37.81;39.41;101462.22;4994800;28;48259;-69
2021/07/11 09:12:10;;;;;;;;;7.00;5.50;;;;;39.86;33.82;101461.81;4994590;28;45428;-68
2021/07/11 09:14:41;;;;;;;;;6.00;6.00;;;;;39.12;34.69;101469.72;4994117;28;45336;-68
2021/07/11 09:17:09;;;;;;;;;7.25;6.00;;;;;37.64;35.49;101458.38;4994811;28;45553;-68
2021/07/11 09:19:41;;;;;;;;;3.00;3.00;;;;;35.87;35.86;101471.09;4994775;28;45559;-69
2021/07/11 09:22:16;;;;;;;;;4.75;4.75;;;;;35.40;38.33;101465.72;4978828;28;45700;-68
2021/07/11 09:24:53;;;;;;;;;4.00;4.00;;;;;34.80;37.08;101467.53;4992155;28;45322;-69
2021/07/11 09:27:21;;;;;;;;;3.75;3.75;;;;;35.03;37.04;101470.75;4994445;28;45735;-68
2021/07/11 09:29:47;;;;;;;;;3.75;3.50;;;;;36.82;36.42;101462.03;4994000;28;45704;-68
2021/07/11 09:32:26;;;;;;;;;6.25;4.50;;;;;37.25;36.00;101465.91;4993153;28;45670;-68
2021/07/11 09:34:52;;;;;;;;;3.00;3.00;;;;;36.27;35.45;101463.59;4994030;28;45392;-69
2021/07/11 09:37:18;;;;;;;;;6.50;4.50;;;;;35.70;36.46;101465.25;4993519;28;45482;-69
2021/07/11 09:39:58;;;;;;;;;6.00;3.75;;;;;37.12;35.87;101460.53;4994400;28;46575;-69
2021/07/11 09:42:31;;;;;;;;;4.00;4.00;;;;;38.61;34.76;101462.88;4993320;28;45608;-68
2021/07/11 09:44:59;;;;;;;;;3.00;3.00;;;;;39.62;32.74;101450.00;4992272;28;45549;-68
2021/07/11 09:47:27;;;;;;;;;2.25;2.25;;;;;40.31;31.35;101458.34;4994273;28;45318;-69
2021/07/11 09:50:00;;;;;;;;;4.50;3.00;;;;;39.06;32.07;101462.41;4992294;28;47595;-68
2021/07/11 09:52:26;;;;;;;;;2.00;2.00;;;;;38.83;32.71;101465.94;4991660;28;45599;-69
2021/07/11 09:55:12;;;;;;;;;3.00;3.00;;;;;39.19;31.73;101472.38;4993375;28;45617;-69
2021/07/11 09:57:40;;;;;;;;;3.00;3.00;;;;;40.08;31.98;101472.19;4992821;28;45806;-68
2021/07/11 10:00:08;;;;;;;;;5.00;3.75;;;;;40.16;30.25;101467.16;4994460;28;46136;-68
2021/07/11 10:02:34;;;;;;;;;4.50;3.75;;;;;39.62;30.49;101455.50;4993398;28;45883;-68
2021/07/11 10:04:59;;;;;;;;;2.00;2.00;;;;;38.58;30.56;101452.38;4993359;28;45525;-69
2021/07/11 10:07:25;;;;;;;;;3.25;3.00;;;;;37.07;31.82;101451.13;4991562;28;49295;-71
2021/07/11 10:09:50;;;;;;;;;2.00;2.00;;;;;37.30;32.48;101455.94;4990095;28;45620;-69
2021/07/11 10:12:15;;;;;;;;;71.75;60.75;;;;;38.19;32.10;101444.66;4990773;28;49991;-69
2021/07/11 10:14:41;;;;;;;;;2.25;2.25;;;;;38.29;31.79;101445.81;4988637;28;45668;-69
2021/07/11 10:17:06;;;;;;;;;2.75;2.75;;;;;38.21;31.28;101442.50;4987721;28;45889;-70
2021/07/11 10:19:33;;;;;;;;;2.75;2.75;;;;;37.72;30.88;101449.88;5004052;28;46162;-70
2021/07/11 10:22:10;;;;;;;;;2.75;2.75;;;;;36.93;32.60;101448.72;4994214;28;45729;-69
2021/07/11 10:24:41;;;;;;;;;3.50;2.50;;;;;36.22;32.33;101456.03;4991755;28;45481;-70
2021/07/11 10:27:24;;;;;;;;;3.25;3.25;;;;;36.14;33.42;101444.50;4994367;28;45544;-70
2021/07/11 10:29:52;;;;;;;;;3.75;3.75;;;;;36.18;33.28;101441.13;4993372;28;46665;-70
2021/07/11 10:32:27;;;;;;;;;2.75;2.75;;;;;35.95;33.33;101438.91;4993815;28;46020;-70
2021/07/11 10:34:53;;;;;;;;;3.00;2.00;;;;;35.46;33.49;101436.72;4997637;28;45682;-69
2021/07/11 10:37:22;;;;;;;;;1.50;1.50;;;;;35.25;33.94;101441.34;4998260;28;45492;-68
2021/07/11 10:40:05;;;;;;;;;2.00;2.00;;;;;35.07;33.38;101445.75;4996926;28;46442;-70
2021/07/11 10:42:30;;;;;;;;;3.00;3.00;;;;;34.57;34.51;101439.81;4993004;28;45409;-70
2021/07/11 10:45:09;;;;;;;;;3.75;2.00;;;;;34.08;34.99;101438.97;4996404;28;45274;-70
2021/07/11 10:47:35;;;;;;;;;3.75;3.00;;;;;34.03;35.08;101443.34;4997728;28;45644;-69
2021/07/11 10:50:00;;;;;;;;;2.00;1.50;;;;;33.71;34.74;101432.06;4997909;28;46101;-69
2021/07/11 10:52:27;;;;;;;;;2.00;2.00;;;;;33.41;35.34;101436.88;4996948;28;45392;-69
2021/07/11 10:54:58;;;;;;;;;6.25;4.25;;;;;33.06;35.55;101427.81;4997690;28;45328;-69
2021/07/11 10:57:34;;;;;;;;;3.25;3.25;;;;;32.78;36.68;101433.19;4997171;28;45222;-69
2021/07/11 11:00:12;;;;;;;;;4.25;4.25;;;;;32.62;36.65;101435.13;4997329;28;46610;-69
2021/07/11 11:02:37;;;;;;;;;2.50;2.00;;;;;32.59;37.20;101429.25;4998083;28;45395;-69
2021/07/11 11:05:12;;;;;;;;;3.25;3.25;;;;;32.48;36.90;101425.16;5017638;28;45482;-69
2021/07/11 11:07:43;;;;;;;;;3.00;3.00;;;;;32.31;37.19;101423.66;4998172;28;45467;-69
2021/07/11 11:10:34;;;;;;;;;4.25;4.00;;;;;31.95;36.12;101428.06;4996490;28;45467;-70
2021/07/11 11:13:08;;;;;;;;;3.25;3.00;;;;;31.54;37.50;101430.41;4994948;28;45487;-69
2021/07/11 11:15:42;;;;;;;;;4.00;4.00;;;;;31.33;38.08;101425.69;4994269;28;45562;-70
2021/07/11 11:18:12;;;;;;;;;2.50;2.50;;;;;31.21;38.20;101420.84;4996782;28;45640;-69
2021/07/11 11:20:37;;;;;;;;;4.00;4.00;;;;;31.10;39.10;101425.69;4995807;28;45578;-70
2021/07/11 11:23:08;;;;;;;;;4.25;4.25;;;;;30.93;38.98;101422.28;4993319;28;45472;-69
2021/07/11 11:25:33;;;;;;;;;2.25;2.25;;;;;30.56;39.12;101425.75;4993063;28;45377;-69